createdAt,value
2023-03-28T00:00:51.817Z,0.00
2023-03-28T00:01:51.758Z,0.00
2023-03-28T00:02:51.810Z,0.00
2023-03-28T00:03:51.808Z,0.00
2023-03-28T00:04:51.760Z,0.00
2023-03-28T00:05:51.751Z,0.00
2023-03-28T00:06:51.710Z,0.00
2023-03-28T00:07:51.689Z,0.00
2023-03-28T00:08:51.699Z,0.00
2023-03-28T00:09:51.707Z,0.00
2023-03-28T00:10:51.688Z,0.00
2023-03-28T00:11:51.690Z,0.00
2023-03-28T00:12:51.687Z,0.00
2023-03-28T00:13:51.657Z,0.00
2023-03-28T00:14:51.638Z,0.00
2023-03-28T00:15:51.633Z,0.00
2023-03-28T00:16:51.655Z,0.00
2023-03-28T00:17:51.645Z,0.00
2023-03-28T00:18:51.597Z,0.00
2023-03-28T00:19:51.577Z,0.00
2023-03-28T00:20:51.562Z,0.00
2023-03-28T00:21:51.610Z,0.00
2023-03-28T00:22:51.568Z,0.00
2023-03-28T00:23:51.556Z,0.00
2023-03-28T00:24:51.544Z,0.00
2023-03-28T00:25:51.577Z,0.00
2023-03-28T00:26:51.505Z,0.00
2023-03-28T00:27:51.535Z,0.00
2023-03-28T00:28:51.495Z,0.00
2023-03-28T00:29:51.515Z,0.00
2023-03-28T00:30:51.544Z,0.00
2023-03-28T00:31:51.586Z,0.00
2023-03-28T00:32:51.493Z,0.00
2023-03-28T00:33:51.492Z,0.00
2023-03-28T00:34:51.497Z,0.00
2023-03-28T00:35:51.513Z,0.00
2023-03-28T00:36:51.424Z,0.00
2023-03-28T00:37:51.416Z,0.00
2023-03-28T00:38:51.446Z,0.00
2023-03-28T00:39:51.392Z,0.00
2023-03-28T00:40:51.407Z,0.00
2023-03-28T00:41:51.469Z,0.00
2023-03-28T00:42:51.383Z,0.00
2023-03-28T00:43:51.425Z,0.00
2023-03-28T00:44:51.429Z,0.00
2023-03-28T00:45:59.166Z,0.00
2023-03-28T00:46:51.366Z,0.00
2023-03-28T00:47:51.361Z,0.00
2023-03-28T00:48:51.325Z,0.00
2023-03-28T00:49:51.301Z,0.00
2023-03-28T00:50:51.298Z,0.00
2023-03-28T00:51:51.256Z,0.00
2023-03-28T00:52:51.245Z,0.00
2023-03-28T00:53:51.238Z,0.00
2023-03-28T00:54:51.259Z,0.00
2023-03-28T00:55:51.232Z,0.00
2023-03-28T00:56:51.262Z,0.00
2023-03-28T00:57:51.265Z,0.00
2023-03-28T00:58:51.215Z,0.00
2023-03-28T00:59:51.239Z,0.00
2023-03-28T01:00:51.185Z,0.00
2023-03-28T01:01:51.188Z,0.00
2023-03-28T01:02:51.545Z,0.00
2023-03-28T01:03:51.187Z,0.00
2023-03-28T01:04:51.216Z,0.00
2023-03-28T01:05:53.066Z,0.00
2023-03-28T01:06:51.145Z,0.00
2023-03-28T01:07:51.125Z,0.00
2023-03-28T01:08:51.108Z,0.00
2023-03-28T01:09:51.093Z,0.00
2023-03-28T01:10:51.110Z,0.00
2023-03-28T01:11:51.127Z,0.00
2023-03-28T01:12:51.067Z,0.00
2023-03-28T01:13:51.163Z,0.00
2023-03-28T01:14:51.035Z,0.00
2023-03-28T01:15:51.062Z,0.00
2023-03-28T01:16:51.029Z,0.00
2023-03-28T01:17:51.023Z,0.00
2023-03-28T01:18:51.613Z,0.00
2023-03-28T01:19:51.020Z,0.00
2023-03-28T01:20:51.018Z,0.00
2023-03-28T01:21:50.961Z,0.00
2023-03-28T01:22:57.270Z,0.00
2023-03-28T01:23:51.018Z,0.00
2023-03-28T01:24:50.955Z,0.00
2023-03-28T01:25:50.950Z,0.00
2023-03-28T01:26:50.957Z,0.00
2023-03-28T01:27:50.961Z,0.00
2023-03-28T01:28:50.905Z,0.00
2023-03-28T01:29:50.906Z,0.00
2023-03-28T01:30:50.874Z,0.00
2023-03-28T01:31:50.950Z,0.00
2023-03-28T01:32:50.924Z,0.00
2023-03-28T01:33:50.863Z,0.00
2023-03-28T01:34:50.872Z,0.00
2023-03-28T01:35:50.925Z,0.00
2023-03-28T01:36:50.858Z,0.00
2023-03-28T01:37:50.818Z,0.00
2023-03-28T01:38:50.803Z,0.00
2023-03-28T01:39:50.803Z,0.00
2023-03-28T01:40:50.763Z,0.00
2023-03-28T01:41:50.777Z,0.00
2023-03-28T01:42:50.791Z,0.00
2023-03-28T01:43:50.794Z,0.00
2023-03-28T01:44:50.763Z,0.00
2023-03-28T01:45:50.839Z,0.00
2023-03-28T01:46:50.757Z,0.00
2023-03-28T01:47:50.740Z,0.00
2023-03-28T01:48:50.937Z,0.00
2023-03-28T01:49:50.691Z,0.00
2023-03-28T01:50:50.668Z,0.00
2023-03-28T01:51:50.699Z,0.00
2023-03-28T01:52:50.673Z,0.00
2023-03-28T01:53:50.648Z,0.00
2023-03-28T01:54:50.695Z,0.00
2023-03-28T01:55:50.617Z,0.00
2023-03-28T01:56:50.752Z,0.00
2023-03-28T01:57:50.741Z,0.00
2023-03-28T01:58:50.638Z,0.00
2023-03-28T01:59:50.584Z,0.00
2023-03-28T02:00:50.599Z,0.00
2023-03-28T02:01:50.570Z,0.00
2023-03-28T02:02:50.577Z,0.00
2023-03-28T02:03:50.553Z,0.00
2023-03-28T02:04:50.568Z,0.00
2023-03-28T02:05:50.520Z,0.00
2023-03-28T02:06:50.533Z,0.00
2023-03-28T02:07:50.509Z,0.00
2023-03-28T02:08:50.754Z,0.00
2023-03-28T02:09:51.136Z,0.00
2023-03-28T02:10:50.520Z,0.00
2023-03-28T02:11:50.472Z,0.00
2023-03-28T02:12:50.455Z,0.00
2023-03-28T02:13:50.489Z,0.00
2023-03-28T02:14:50.455Z,0.00
2023-03-28T02:15:50.432Z,0.00
2023-03-28T02:16:50.508Z,0.00
2023-03-28T02:17:50.469Z,0.00
2023-03-28T02:18:50.417Z,0.00
2023-03-28T02:19:50.395Z,0.00
2023-03-28T02:20:50.489Z,0.00
2023-03-28T02:21:50.377Z,0.00
2023-03-28T02:22:50.347Z,0.00
2023-03-28T02:23:50.404Z,0.00
2023-03-28T02:24:50.386Z,0.00
2023-03-28T02:25:50.368Z,0.00
2023-03-28T02:26:50.309Z,0.00
2023-03-28T02:27:50.939Z,0.00
2023-03-28T02:28:50.324Z,0.00
2023-03-28T02:29:50.298Z,0.00
2023-03-28T02:30:50.310Z,0.00
2023-03-28T02:31:50.314Z,0.00
2023-03-28T02:32:50.539Z,0.00
2023-03-28T02:33:50.246Z,0.00
2023-03-28T02:34:50.316Z,0.00
2023-03-28T02:35:50.305Z,0.00
2023-03-28T02:36:50.235Z,0.00
2023-03-28T02:37:50.205Z,0.00
2023-03-28T02:38:50.220Z,0.00
2023-03-28T02:39:50.354Z,0.00
2023-03-28T02:40:50.242Z,0.00
2023-03-28T02:41:50.180Z,0.00
2023-03-28T02:42:50.172Z,0.00
2023-03-28T02:43:50.155Z,0.00
2023-03-28T02:44:50.199Z,0.00
2023-03-28T02:45:50.293Z,0.00
2023-03-28T02:46:50.144Z,0.00
2023-03-28T02:47:50.182Z,0.00
2023-03-28T02:48:50.121Z,0.00
2023-03-28T02:49:50.958Z,0.00
2023-03-28T02:50:50.165Z,0.00
2023-03-28T02:51:50.077Z,0.00
2023-03-28T02:52:50.082Z,0.00
2023-03-28T02:53:50.094Z,0.00
2023-03-28T02:54:50.213Z,0.00
2023-03-28T02:55:50.099Z,0.00
2023-03-28T02:56:50.119Z,0.00
2023-03-28T02:57:50.015Z,0.00
2023-03-28T02:58:50.006Z,0.00
2023-03-28T02:59:50.028Z,0.00
2023-03-28T03:00:50.240Z,0.00
2023-03-28T03:01:50.156Z,0.00
2023-03-28T03:02:50.029Z,0.00
2023-03-28T03:03:50.075Z,0.00
2023-03-28T03:04:49.964Z,0.00
2023-03-28T03:05:49.974Z,0.00
2023-03-28T03:06:49.930Z,0.00
2023-03-28T03:07:50.069Z,0.00
2023-03-28T03:08:49.949Z,0.00
2023-03-28T03:09:49.911Z,0.00
2023-03-28T03:10:49.899Z,0.00
2023-03-28T03:11:49.880Z,0.00
2023-03-28T03:12:49.914Z,0.00
2023-03-28T03:13:49.902Z,0.00
2023-03-28T03:14:49.863Z,0.00
2023-03-28T03:15:49.905Z,0.00
2023-03-28T03:16:49.821Z,0.00
2023-03-28T03:17:49.910Z,0.00
2023-03-28T03:18:49.820Z,0.00
2023-03-28T03:19:49.996Z,0.00
2023-03-28T03:20:49.853Z,0.00
2023-03-28T03:21:49.896Z,0.00
2023-03-28T03:22:49.824Z,0.00
2023-03-28T03:23:49.763Z,0.00
2023-03-28T03:24:49.747Z,0.00
2023-03-28T03:25:49.733Z,0.00
2023-03-28T03:26:49.746Z,0.00
2023-03-28T03:27:49.745Z,0.00
2023-03-28T03:28:49.716Z,0.00
2023-03-28T03:29:49.757Z,0.00
2023-03-28T03:30:49.708Z,0.00
2023-03-28T03:31:49.707Z,0.00
2023-03-28T03:32:49.683Z,0.00
2023-03-28T03:33:49.688Z,0.00
2023-03-28T03:34:49.690Z,0.00
2023-03-28T03:35:49.741Z,0.00
2023-03-28T03:36:49.632Z,0.00
2023-03-28T03:37:49.710Z,0.00
2023-03-28T03:38:49.609Z,0.00
2023-03-28T03:39:49.638Z,0.00
2023-03-28T03:40:49.633Z,0.00
2023-03-28T03:41:49.602Z,0.00
2023-03-28T03:42:49.625Z,0.00
2023-03-28T03:43:49.584Z,0.00
2023-03-28T03:44:49.557Z,0.00
2023-03-28T03:45:49.581Z,0.00
2023-03-28T03:46:49.594Z,0.00
2023-03-28T03:47:49.546Z,0.00
2023-03-28T03:48:50.500Z,0.00
2023-03-28T03:49:49.550Z,0.00
2023-03-28T03:50:49.526Z,0.00
2023-03-28T03:51:50.483Z,0.00
2023-03-28T03:52:49.522Z,0.00
2023-03-28T03:53:49.522Z,0.00
2023-03-28T03:54:49.508Z,0.00
2023-03-28T03:55:49.622Z,0.00
2023-03-28T03:56:49.498Z,0.00
2023-03-28T03:57:49.735Z,0.00
2023-03-28T03:58:49.440Z,0.00
2023-03-28T03:59:50.424Z,0.00
2023-03-28T04:00:50.009Z,0.00
2023-03-28T04:01:49.449Z,0.00
2023-03-28T04:02:49.437Z,0.00
2023-03-28T04:03:49.469Z,0.00
2023-03-28T04:04:49.482Z,0.00
2023-03-28T04:05:49.389Z,0.00
2023-03-28T04:06:49.330Z,0.00
2023-03-28T04:07:49.395Z,0.00
2023-03-28T04:08:49.614Z,0.00
2023-03-28T04:09:49.409Z,0.00
2023-03-28T04:10:49.378Z,0.00
2023-03-28T04:11:49.564Z,0.00
2023-03-28T04:12:49.387Z,0.00
2023-03-28T04:13:49.278Z,0.00
2023-03-28T04:14:49.277Z,0.00
2023-03-28T04:15:49.271Z,0.00
2023-03-28T04:16:49.228Z,0.00
2023-03-28T04:17:49.246Z,0.00
2023-03-28T04:18:49.242Z,0.00
2023-03-28T04:19:49.242Z,0.00
2023-03-28T04:20:49.186Z,0.00
2023-03-28T04:21:49.179Z,0.00
2023-03-28T04:22:49.200Z,0.00
2023-03-28T04:23:49.156Z,0.00
2023-03-28T04:24:49.167Z,0.00
2023-03-28T04:25:49.160Z,0.00
2023-03-28T04:26:49.161Z,0.00
2023-03-28T04:27:49.120Z,0.00
2023-03-28T04:28:49.124Z,0.00
2023-03-28T04:29:49.138Z,0.00
2023-03-28T04:30:49.096Z,0.00
2023-03-28T04:31:49.199Z,0.00
2023-03-28T04:32:49.021Z,1.00
2023-03-28T04:33:49.062Z,0.00
2023-03-28T04:34:49.019Z,1.00
2023-03-28T04:35:49.102Z,0.00
2023-03-28T04:36:49.035Z,0.00
2023-03-28T04:37:49.025Z,0.00
2023-03-28T04:38:49.100Z,0.00
2023-03-28T04:39:49.008Z,0.00
2023-03-28T04:40:48.951Z,1.00
2023-03-28T04:41:48.971Z,1.00
2023-03-28T04:42:48.944Z,1.00
2023-03-28T04:43:49.093Z,0.00
2023-03-28T04:44:48.974Z,0.00
2023-03-28T04:45:49.034Z,0.00
2023-03-28T04:46:48.953Z,0.00
2023-03-28T04:47:48.973Z,1.00
2023-03-28T04:48:48.911Z,2.00
2023-03-28T04:49:48.898Z,2.00
2023-03-28T04:50:48.837Z,3.00
2023-03-28T04:51:48.889Z,3.00
2023-03-28T04:52:48.944Z,5.00
2023-03-28T04:53:48.859Z,2.00
2023-03-28T04:54:48.830Z,3.00
2023-03-28T04:55:48.859Z,2.00
2023-03-28T04:56:48.882Z,4.00
2023-03-28T04:57:48.811Z,5.00
2023-03-28T04:58:48.779Z,4.00
2023-03-28T04:59:48.892Z,5.00
2023-03-28T05:00:48.741Z,6.00
2023-03-28T05:01:48.873Z,10.00
2023-03-28T05:02:48.949Z,12.00
2023-03-28T05:03:48.767Z,14.00
2023-03-28T05:04:48.751Z,24.00
2023-03-28T05:05:48.695Z,22.00
2023-03-28T05:06:48.705Z,25.00
2023-03-28T05:07:48.732Z,29.00
2023-03-28T05:08:48.736Z,33.00
2023-03-28T05:09:48.662Z,39.00
2023-03-28T05:10:48.755Z,45.00
2023-03-28T05:11:48.630Z,55.00
2023-03-28T05:12:48.668Z,58.00
2023-03-28T05:13:48.616Z,65.00
2023-03-28T05:14:48.638Z,75.00
2023-03-28T05:15:48.649Z,80.00
2023-03-28T05:16:48.667Z,88.00
2023-03-28T05:17:48.580Z,99.00
2023-03-28T05:18:48.622Z,104.00
2023-03-28T05:19:48.588Z,114.00
2023-03-28T05:20:48.580Z,123.00
2023-03-28T05:21:48.540Z,134.00
2023-03-28T05:22:48.562Z,145.00
2023-03-28T05:23:52.158Z,152.00
2023-03-28T05:24:48.559Z,172.00
2023-03-28T05:25:48.560Z,182.00
2023-03-28T05:26:48.481Z,190.00
2023-03-28T05:27:48.517Z,203.00
2023-03-28T05:28:48.476Z,216.00
2023-03-28T05:29:48.468Z,233.00
2023-03-28T05:30:48.466Z,246.00
2023-03-28T05:31:48.538Z,257.00
2023-03-28T05:32:48.468Z,267.00
2023-03-28T05:33:49.181Z,286.00
2023-03-28T05:34:48.837Z,303.00
2023-03-28T05:35:48.453Z,313.00
2023-03-28T05:36:49.100Z,325.00
2023-03-28T05:37:48.413Z,341.00
2023-03-28T05:38:51.090Z,355.00
2023-03-28T05:39:49.205Z,370.00
2023-03-28T05:40:48.419Z,383.00
2023-03-28T05:41:48.385Z,399.00
2023-03-28T05:42:48.744Z,412.00
2023-03-28T05:43:48.362Z,423.00
2023-03-28T05:44:48.403Z,454.00
2023-03-28T05:45:48.409Z,456.00
2023-03-28T05:46:48.355Z,467.00
2023-03-28T05:47:48.456Z,480.00
2023-03-28T05:48:49.461Z,498.00
2023-03-28T05:49:48.406Z,514.00
2023-03-28T05:50:48.472Z,528.00
2023-03-28T05:51:48.312Z,539.00
2023-03-28T05:52:48.345Z,555.00
2023-03-28T05:53:48.301Z,570.00
2023-03-28T05:54:50.024Z,584.00
2023-03-28T05:55:48.240Z,587.00
2023-03-28T05:56:48.416Z,592.00
2023-03-28T05:57:48.279Z,602.00
2023-03-28T05:58:48.284Z,646.00
2023-03-28T05:59:48.432Z,673.00
2023-03-28T06:00:48.360Z,701.00
2023-03-28T06:01:48.487Z,773.00
2023-03-28T06:02:48.299Z,693.00
2023-03-28T06:03:48.235Z,739.00
2023-03-28T06:04:48.274Z,748.00
2023-03-28T06:05:48.135Z,763.00
2023-03-28T06:06:48.219Z,815.00
2023-03-28T06:07:48.288Z,739.00
2023-03-28T06:08:48.202Z,866.00
2023-03-28T06:09:48.113Z,947.00
2023-03-28T06:10:48.179Z,816.00
2023-03-28T06:11:48.125Z,798.00
2023-03-28T06:12:48.085Z,734.00
2023-03-28T06:13:48.244Z,462.00
2023-03-28T06:14:48.044Z,666.00
2023-03-28T06:15:48.081Z,1246.00
2023-03-28T06:16:48.096Z,1182.00
2023-03-28T06:17:48.037Z,2161.00
2023-03-28T06:18:48.106Z,1990.00
2023-03-28T06:19:48.013Z,607.00
2023-03-28T06:20:48.319Z,1055.00
2023-03-28T06:21:47.974Z,1774.00
2023-03-28T06:22:47.976Z,1535.00
2023-03-28T06:23:47.918Z,1254.00
2023-03-28T06:24:47.921Z,1051.00
2023-03-28T06:25:47.929Z,1170.00
2023-03-28T06:26:47.941Z,875.00
2023-03-28T06:27:48.049Z,1240.00
2023-03-28T06:28:47.868Z,995.00
2023-03-28T06:29:47.867Z,1966.00
2023-03-28T06:30:47.973Z,3714.00
2023-03-28T06:31:47.936Z,2675.00
2023-03-28T06:32:47.901Z,2397.00
2023-03-28T06:33:47.856Z,1735.00
2023-03-28T06:34:47.843Z,3687.00
2023-03-28T06:35:47.920Z,4351.00
2023-03-28T06:36:47.814Z,5372.00
2023-03-28T06:37:47.893Z,2281.00
2023-03-28T06:38:47.827Z,2799.00
2023-03-28T06:39:47.780Z,6829.00
2023-03-28T06:40:47.791Z,9195.00
2023-03-28T06:41:47.803Z,3502.00
2023-03-28T06:42:47.747Z,3862.00
2023-03-28T06:43:47.763Z,10785.00
2023-03-28T06:44:47.770Z,8721.00
2023-03-28T06:45:47.878Z,5770.00
2023-03-28T06:46:47.721Z,7847.00
2023-03-28T06:47:47.693Z,6894.00
2023-03-28T06:48:47.771Z,9245.00
2023-03-28T06:49:47.687Z,7385.00
2023-03-28T06:50:47.689Z,7905.00
2023-03-28T06:51:47.671Z,6915.00
2023-03-28T06:52:47.662Z,6355.00
2023-03-28T06:53:47.693Z,8221.00
2023-03-28T06:54:48.631Z,8125.00
2023-03-28T06:55:47.627Z,9305.00
2023-03-28T06:56:47.655Z,9764.00
2023-03-28T06:57:47.601Z,9633.00
2023-03-28T06:58:47.606Z,8150.00
2023-03-28T06:59:47.658Z,9803.00
2023-03-28T07:00:47.635Z,11151.00
2023-03-28T07:01:47.650Z,9980.00
2023-03-28T07:02:47.663Z,8588.00
2023-03-28T07:03:49.384Z,9174.00
2023-03-28T07:04:47.529Z,11185.00
2023-03-28T07:05:47.572Z,11915.00
2023-03-28T07:06:47.606Z,13917.00
2023-03-28T07:07:47.502Z,13334.00
2023-03-28T07:08:47.512Z,10839.00
2023-03-28T07:09:47.481Z,12463.00
2023-03-28T07:10:47.523Z,11348.00
2023-03-28T07:11:47.476Z,11634.00
2023-03-28T07:12:47.506Z,11956.00
2023-03-28T07:13:47.561Z,13776.00
2023-03-28T07:14:47.450Z,11687.00
2023-03-28T07:15:47.426Z,5893.00
2023-03-28T07:16:47.598Z,2595.00
2023-03-28T07:17:47.607Z,2372.00
2023-03-28T07:18:47.406Z,2353.00
2023-03-28T07:19:47.381Z,2290.00
2023-03-28T07:20:52.014Z,2309.00
2023-03-28T07:21:47.373Z,2308.00
2023-03-28T07:22:47.363Z,2331.00
2023-03-28T07:23:47.339Z,2297.00
2023-03-28T07:24:47.417Z,2333.00
2023-03-28T07:25:47.421Z,2382.00
2023-03-28T07:26:47.324Z,2278.00
2023-03-28T07:27:47.326Z,2279.00
2023-03-28T07:28:47.290Z,2210.00
2023-03-28T07:29:47.280Z,2190.00
2023-03-28T07:30:47.267Z,2174.00
2023-03-28T07:31:47.313Z,2165.00
2023-03-28T07:32:55.681Z,2115.00
2023-03-28T07:33:47.324Z,2132.00
2023-03-28T07:34:47.276Z,2131.00
2023-03-28T07:35:47.268Z,2133.00
2023-03-28T07:36:47.374Z,2091.00
2023-03-28T07:37:47.229Z,2065.00
2023-03-28T07:38:49.014Z,2424.00
2023-03-28T07:39:47.358Z,1868.00
2023-03-28T07:40:47.396Z,1812.00
2023-03-28T07:41:47.511Z,1919.00
2023-03-28T07:42:47.147Z,2093.00
2023-03-28T07:43:47.118Z,2072.00
2023-03-28T07:44:47.177Z,2091.00
2023-03-28T07:45:47.156Z,2126.00
2023-03-28T07:46:47.146Z,1818.00
2023-03-28T07:47:47.187Z,2208.00
2023-03-28T07:48:47.094Z,1788.00
2023-03-28T07:49:47.076Z,2041.00
2023-03-28T07:50:47.068Z,2177.00
2023-03-28T07:51:47.195Z,2070.00
2023-03-28T07:52:47.134Z,2075.00
2023-03-28T07:53:47.074Z,2115.00
2023-03-28T07:54:47.094Z,2155.00
2023-03-28T07:55:54.515Z,2502.00
2023-03-28T07:56:47.084Z,1655.00
2023-03-28T07:57:47.049Z,2093.00
2023-03-28T07:58:46.984Z,2027.00
2023-03-28T07:59:46.960Z,2292.00
2023-03-28T08:00:46.983Z,2170.00
2023-03-28T08:01:47.054Z,2247.00
2023-03-28T08:02:47.211Z,1886.00
2023-03-28T08:03:47.081Z,2421.00
2023-03-28T08:04:46.968Z,999.00
2023-03-28T08:05:46.954Z,2307.00
2023-03-28T08:06:46.928Z,2188.00
2023-03-28T08:07:46.927Z,2224.00
2023-03-28T08:08:47.095Z,2476.00
2023-03-28T08:09:46.925Z,1574.00
2023-03-28T08:10:46.890Z,2365.00
2023-03-28T08:11:46.900Z,2232.00
2023-03-28T08:12:46.915Z,1664.00
2023-03-28T08:13:46.868Z,2181.00
2023-03-28T08:14:46.812Z,2166.00
2023-03-28T08:15:46.899Z,2171.00
2023-03-28T08:16:46.843Z,2144.00
2023-03-28T08:17:46.872Z,2146.00
2023-03-28T08:18:54.395Z,2159.00
2023-03-28T08:19:47.018Z,2117.00
2023-03-28T08:20:46.772Z,2140.00
2023-03-28T08:21:46.813Z,2039.00
2023-03-28T08:22:47.111Z,2157.00
2023-03-28T08:23:46.721Z,2090.00
2023-03-28T08:24:46.744Z,2173.00
2023-03-28T08:25:46.742Z,2034.00
2023-03-28T08:26:48.624Z,2125.00
2023-03-28T08:27:46.777Z,2058.00
2023-03-28T08:28:46.689Z,2093.00
2023-03-28T08:29:46.764Z,2051.00
2023-03-28T08:30:46.678Z,2073.00
2023-03-28T08:31:46.729Z,2133.00
2023-03-28T08:32:48.832Z,2139.00
2023-03-28T08:33:46.690Z,2112.00
2023-03-28T08:34:46.727Z,2141.00
2023-03-28T08:35:46.690Z,2086.00
2023-03-28T08:36:46.612Z,2222.00
2023-03-28T08:37:46.596Z,2150.00
2023-03-28T08:38:46.641Z,1953.00
2023-03-28T08:39:46.637Z,2087.00
2023-03-28T08:40:46.595Z,1861.00
2023-03-28T08:41:46.659Z,1981.00
2023-03-28T08:42:46.609Z,2118.00
2023-03-28T08:43:46.565Z,2295.00
2023-03-28T08:44:48.445Z,1780.00
2023-03-28T08:45:46.546Z,1522.00
2023-03-28T08:46:46.575Z,2139.00
2023-03-28T08:47:46.528Z,2252.00
2023-03-28T08:48:46.769Z,2829.00
2023-03-28T08:49:46.526Z,1097.00
2023-03-28T08:50:46.495Z,1633.00
2023-03-28T08:51:46.469Z,2395.00
2023-03-28T08:52:46.451Z,1379.00
2023-03-28T08:53:46.505Z,2047.00
2023-03-28T08:54:46.498Z,2999.00
2023-03-28T08:55:46.450Z,700.00
2023-03-28T08:56:46.447Z,2148.00
2023-03-28T08:57:46.432Z,2044.00
2023-03-28T08:58:46.508Z,2710.00
2023-03-28T08:59:46.420Z,2295.00
2023-03-28T09:00:46.654Z,499.00
2023-03-28T09:01:46.427Z,1414.00
2023-03-28T09:02:47.231Z,2060.00
2023-03-28T09:03:46.432Z,2150.00
2023-03-28T09:04:46.413Z,2076.00
2023-03-28T09:05:46.349Z,2108.00
2023-03-28T09:06:46.362Z,2100.00
2023-03-28T09:07:46.313Z,2125.00
2023-03-28T09:08:46.690Z,2119.00
2023-03-28T09:09:46.297Z,2109.00
2023-03-28T09:10:46.286Z,2131.00
2023-03-28T09:11:46.617Z,2098.00
2023-03-28T09:12:46.283Z,2349.00
2023-03-28T09:13:46.477Z,1796.00
2023-03-28T09:14:46.304Z,2153.00
2023-03-28T09:15:46.248Z,2129.00
2023-03-28T09:16:46.289Z,2113.00
2023-03-28T09:17:46.343Z,2224.00
2023-03-28T09:18:46.198Z,2166.00
2023-03-28T09:19:48.828Z,1811.00
2023-03-28T09:20:46.199Z,2308.00
2023-03-28T09:21:46.207Z,2082.00
2023-03-28T09:22:46.165Z,2293.00
2023-03-28T09:23:46.165Z,2380.00
2023-03-28T09:24:46.150Z,1639.00
2023-03-28T09:25:46.172Z,2209.00
2023-03-28T09:26:46.174Z,2698.00
2023-03-28T09:27:46.130Z,2801.00
2023-03-28T09:28:46.143Z,621.00
2023-03-28T09:29:46.084Z,1994.00
2023-03-28T09:30:46.080Z,2295.00
2023-03-28T09:31:46.195Z,2258.00
2023-03-28T09:32:46.104Z,2415.00
2023-03-28T09:33:46.993Z,2196.00
2023-03-28T09:34:46.109Z,2610.00
2023-03-28T09:35:46.152Z,2018.00
2023-03-28T09:36:49.653Z,2234.00
2023-03-28T09:37:46.272Z,2292.00
2023-03-28T09:38:46.055Z,3261.00
2023-03-28T09:39:45.995Z,1001.00
2023-03-28T09:40:45.987Z,1632.00
2023-03-28T09:41:46.066Z,2427.00
2023-03-28T09:42:45.961Z,2992.00
2023-03-28T09:43:46.245Z,602.00
2023-03-28T09:44:54.071Z,2018.00
2023-03-28T09:45:45.974Z,2856.00
2023-03-28T09:46:45.889Z,1781.00
2023-03-28T09:47:46.024Z,2309.00
2023-03-28T09:48:46.015Z,2528.00
2023-03-28T09:49:45.917Z,2184.00
2023-03-28T09:50:45.875Z,2030.00
2023-03-28T09:51:45.869Z,2120.00
2023-03-28T09:52:45.880Z,2307.00
2023-03-28T09:53:45.869Z,2268.00
2023-03-28T09:54:45.901Z,3083.00
2023-03-28T09:55:54.659Z,1983.00
2023-03-28T09:56:45.839Z,3431.00
2023-03-28T09:57:45.870Z,1497.00
2023-03-28T09:58:45.870Z,2455.00
2023-03-28T09:59:45.780Z,2427.00
2023-03-28T10:00:45.839Z,1858.00
2023-03-28T10:01:45.794Z,2108.00
2023-03-28T10:02:45.818Z,1878.00
2023-03-28T10:03:45.748Z,2521.00
2023-03-28T10:04:45.799Z,3055.00
2023-03-28T10:05:45.727Z,2202.00
2023-03-28T10:06:45.728Z,2945.00
2023-03-28T10:07:45.727Z,2948.00
2023-03-28T10:08:45.904Z,2305.00
2023-03-28T10:09:45.667Z,2774.00
2023-03-28T10:10:45.690Z,2816.00
2023-03-28T10:11:45.660Z,2862.00
2023-03-28T10:12:45.746Z,2442.00
2023-03-28T10:13:45.674Z,2600.00
2023-03-28T10:14:45.630Z,2462.00
2023-03-28T10:15:45.732Z,2431.00
2023-03-28T10:16:45.764Z,2558.00
2023-03-28T10:17:45.666Z,2891.00
2023-03-28T10:18:45.662Z,3122.00
2023-03-28T10:19:45.572Z,3339.00
2023-03-28T10:20:45.566Z,3220.00
2023-03-28T10:21:45.587Z,2267.00
2023-03-28T10:22:45.770Z,3194.00
2023-03-28T10:23:45.656Z,4351.00
2023-03-28T10:24:45.587Z,2112.00
2023-03-28T10:25:45.610Z,3331.00
2023-03-28T10:26:45.503Z,3132.00
2023-03-28T10:27:45.613Z,3581.00
2023-03-28T10:28:45.517Z,3550.00
2023-03-28T10:29:45.519Z,2837.00
2023-03-28T10:30:45.468Z,3432.00
2023-03-28T10:31:45.500Z,3382.00
2023-03-28T10:32:45.555Z,3227.00
2023-03-28T10:33:45.519Z,3593.00
2023-03-28T10:34:45.448Z,3122.00
2023-03-28T10:35:45.456Z,2217.00
2023-03-28T10:36:45.499Z,3401.00
2023-03-28T10:37:45.406Z,2740.00
2023-03-28T10:38:45.478Z,2164.00
2023-03-28T10:39:45.378Z,2056.00
2023-03-28T10:40:45.425Z,1979.00
2023-03-28T10:41:45.379Z,2649.00
2023-03-28T10:42:45.319Z,2859.00
2023-03-28T10:43:45.341Z,2495.00
2023-03-28T10:44:45.375Z,2833.00
2023-03-28T10:45:45.322Z,3692.00
2023-03-28T10:46:45.363Z,3302.00
2023-03-28T10:47:45.325Z,3441.00
2023-03-28T10:48:45.271Z,2629.00
2023-03-28T10:49:45.373Z,2954.00
2023-03-28T10:50:45.261Z,1929.00
2023-03-28T10:51:45.332Z,2767.00
2023-03-28T10:52:45.254Z,3293.00
2023-03-28T10:53:45.242Z,3421.00
2023-03-28T10:54:45.208Z,3483.00
2023-03-28T10:55:45.228Z,3364.00
2023-03-28T10:56:45.235Z,3377.00
2023-03-28T10:57:45.201Z,3324.00
2023-03-28T10:58:45.217Z,3315.00
2023-03-28T10:59:45.215Z,2670.00
2023-03-28T11:00:45.200Z,2279.00
2023-03-28T11:01:45.223Z,2784.00
2023-03-28T11:02:45.259Z,3349.00
2023-03-28T11:03:45.293Z,3278.00
2023-03-28T11:04:46.207Z,2853.00
2023-03-28T11:05:52.200Z,2741.00
2023-03-28T11:06:45.220Z,2670.00
2023-03-28T11:07:45.116Z,2851.00
2023-03-28T11:08:45.082Z,2964.00
2023-03-28T11:09:45.203Z,2945.00
2023-03-28T11:10:45.117Z,2878.00
2023-03-28T11:11:45.126Z,3115.00
2023-03-28T11:12:54.310Z,2715.00
2023-03-28T11:13:45.069Z,3628.00
2023-03-28T11:14:45.058Z,1425.00
2023-03-28T11:15:45.126Z,3772.00
2023-03-28T11:16:45.012Z,1572.00
2023-03-28T11:17:45.049Z,2006.00
2023-03-28T11:18:44.998Z,2937.00
2023-03-28T11:19:45.019Z,2780.00
2023-03-28T11:20:44.952Z,2638.00
2023-03-28T11:21:44.963Z,2850.00
2023-03-28T11:22:55.300Z,2979.00
2023-03-28T11:23:45.106Z,2865.00
2023-03-28T11:24:44.961Z,2925.00
2023-03-28T11:25:44.914Z,2734.00
2023-03-28T11:26:44.901Z,2865.00
2023-03-28T11:27:44.911Z,2779.00
2023-03-28T11:28:46.527Z,2748.00
2023-03-28T11:29:45.136Z,2833.00
2023-03-28T11:30:44.943Z,2716.00
2023-03-28T11:31:45.046Z,2804.00
2023-03-28T11:32:44.875Z,2990.00
2023-03-28T11:33:44.871Z,2772.00
2023-03-28T11:34:44.872Z,2603.00
2023-03-28T11:35:44.834Z,2783.00
2023-03-28T11:36:44.860Z,2803.00
2023-03-28T11:37:44.822Z,2640.00
2023-03-28T11:38:44.892Z,2742.00
2023-03-28T11:39:44.822Z,3128.00
2023-03-28T11:40:44.740Z,2732.00
2023-03-28T11:41:44.743Z,2938.00
2023-03-28T11:42:44.755Z,2855.00
2023-03-28T11:43:44.731Z,3025.00
2023-03-28T11:44:44.820Z,3062.00
2023-03-28T11:45:52.265Z,2972.00
2023-03-28T11:46:44.746Z,3001.00
2023-03-28T11:47:44.867Z,3017.00
2023-03-28T11:48:44.828Z,3254.00
2023-03-28T11:49:44.675Z,2916.00
2023-03-28T11:50:44.693Z,3007.00
2023-03-28T11:51:44.687Z,2895.00
2023-03-28T11:52:45.641Z,2979.00
2023-03-28T11:53:44.618Z,2873.00
2023-03-28T11:54:44.625Z,2960.00
2023-03-28T11:55:44.650Z,3011.00
2023-03-28T11:56:44.635Z,2855.00
2023-03-28T11:57:44.622Z,2913.00
2023-03-28T11:58:44.613Z,2959.00
2023-03-28T11:59:44.554Z,2956.00
2023-03-28T12:00:44.642Z,2975.00
2023-03-28T12:01:45.125Z,2878.00
2023-03-28T12:02:44.621Z,3028.00
2023-03-28T12:03:44.590Z,3075.00
2023-03-28T12:04:44.531Z,2860.00
2023-03-28T12:05:44.539Z,2770.00
2023-03-28T12:06:55.832Z,2716.00
2023-03-28T12:07:44.514Z,2696.00
2023-03-28T12:08:44.502Z,2628.00
2023-03-28T12:09:44.473Z,2631.00
2023-03-28T12:10:44.441Z,2595.00
2023-03-28T12:11:44.464Z,2624.00
2023-03-28T12:12:44.438Z,2543.00
2023-03-28T12:13:46.283Z,2416.00
2023-03-28T12:14:44.478Z,2514.00
2023-03-28T12:15:44.413Z,2375.00
2023-03-28T12:16:44.599Z,2358.00
2023-03-28T12:17:44.412Z,2423.00
2023-03-28T12:18:44.417Z,2435.00
2023-03-28T12:19:44.384Z,2302.00
2023-03-28T12:20:44.338Z,2405.00
2023-03-28T12:21:44.452Z,2695.00
2023-03-28T12:22:44.335Z,2538.00
2023-03-28T12:23:44.303Z,2593.00
2023-03-28T12:24:44.299Z,2762.00
2023-03-28T12:25:44.379Z,2793.00
2023-03-28T12:26:44.314Z,2932.00
2023-03-28T12:27:44.342Z,3006.00
2023-03-28T12:28:44.286Z,2721.00
2023-03-28T12:29:44.245Z,2559.00
2023-03-28T12:30:44.281Z,2723.00
2023-03-28T12:31:44.478Z,2740.00
2023-03-28T12:32:44.284Z,2587.00
2023-03-28T12:33:44.242Z,2722.00
2023-03-28T12:34:44.230Z,2697.00
2023-03-28T12:35:44.273Z,2644.00